createdAt,value
2018-10-11T00:01:47.931Z,15.00
2018-10-11T00:06:51.290Z,15.00
2018-10-11T00:11:54.601Z,14.60
2018-10-11T00:16:57.878Z,14.40
2018-10-11T00:22:02.318Z,14.40
2018-10-11T00:27:05.562Z,14.70
2018-10-11T00:32:08.908Z,14.60
2018-10-11T00:37:12.111Z,14.40
2018-10-11T00:42:15.385Z,14.00
2018-10-11T00:47:18.629Z,13.60
2018-10-11T00:52:21.838Z,13.30
2018-10-11T00:57:26.295Z,13.20
2018-10-11T01:02:30.002Z,13.00
2018-10-11T01:07:33.303Z,12.90
2018-10-11T01:12:36.530Z,12.90
2018-10-11T01:17:39.882Z,12.90
2018-10-11T01:22:43.182Z,12.70
2018-10-11T01:27:46.398Z,12.80
2018-10-11T01:32:49.604Z,12.70
2018-10-11T01:37:52.866Z,12.60
2018-10-11T01:43:03.472Z,12.60
2018-10-11T01:48:06.803Z,12.60
2018-10-11T01:53:09.997Z,12.60
2018-10-11T01:58:13.206Z,12.90
2018-10-11T02:03:16.397Z,12.80
2018-10-11T02:08:20.010Z,12.60
2018-10-11T02:13:23.213Z,12.50
2018-10-11T02:18:26.440Z,12.30
2018-10-11T02:23:29.738Z,12.20
2018-10-11T02:28:33.871Z,12.10
2018-10-11T02:33:39.136Z,12.10
2018-10-11T02:38:42.370Z,12.00
2018-10-11T02:43:45.630Z,11.90
2018-10-11T02:48:48.907Z,12.10
2018-10-11T02:53:52.226Z,11.80
2018-10-11T02:59:06.866Z,12.20
2018-10-11T03:04:10.080Z,12.20
2018-10-11T03:09:13.318Z,12.10
2018-10-11T03:14:16.486Z,12.10
2018-10-11T03:19:19.700Z,12.00
2018-10-11T03:24:22.971Z,11.90
2018-10-11T03:29:26.214Z,11.90
2018-10-11T03:34:30.022Z,11.80
2018-10-11T03:39:33.234Z,11.90
2018-10-11T03:44:36.543Z,11.70
2018-10-11T03:49:39.804Z,11.70
2018-10-11T03:54:43.359Z,11.60
2018-10-11T03:59:46.578Z,11.60
2018-10-11T04:04:49.762Z,11.50
2018-10-11T04:09:52.979Z,11.60
2018-10-11T04:14:56.170Z,11.60
2018-10-11T04:19:59.470Z,11.40
2018-10-11T04:25:02.690Z,11.70
2018-10-11T04:30:05.890Z,11.90
2018-10-11T04:35:09.047Z,12.00
2018-10-11T04:40:12.242Z,11.90
2018-10-11T04:45:16.209Z,11.80
2018-10-11T04:50:20.517Z,11.70
2018-10-11T04:55:23.817Z,11.40
2018-10-11T05:00:27.820Z,11.40
2018-10-11T05:05:31.079Z,11.40
2018-10-11T05:10:34.266Z,11.40
2018-10-11T05:15:37.894Z,11.20
2018-10-11T05:20:41.435Z,11.10
2018-10-11T05:25:44.603Z,11.20
2018-10-11T05:30:47.738Z,11.10
2018-10-11T05:35:50.918Z,10.90
2018-10-11T05:40:55.429Z,10.90
2018-10-11T05:46:00.564Z,11.00
2018-10-11T05:51:04.338Z,10.80
2018-10-11T05:56:10.578Z,10.80
2018-10-11T06:01:13.764Z,10.80
2018-10-11T06:06:16.959Z,10.80
2018-10-11T06:11:20.314Z,10.90
2018-10-11T06:16:23.512Z,10.90
2018-10-11T06:21:26.722Z,11.00
2018-10-11T06:26:29.960Z,10.90
2018-10-11T06:31:45.393Z,10.90
2018-10-11T06:36:48.621Z,10.90
2018-10-11T06:41:51.812Z,11.00
2018-10-11T06:46:55.510Z,11.10
2018-10-11T06:51:58.739Z,11.10
2018-10-11T06:57:01.992Z,11.20
2018-10-11T07:02:05.375Z,11.30
2018-10-11T07:07:08.602Z,11.50
2018-10-11T07:12:12.794Z,11.60
2018-10-11T07:17:16.438Z,11.70
2018-10-11T07:22:20.899Z,11.80
2018-10-11T07:27:24.404Z,12.00
2018-10-11T07:32:27.904Z,12.30
2018-10-11T07:37:31.156Z,12.30
2018-10-11T07:42:34.417Z,12.40
2018-10-11T07:47:37.790Z,12.70
2018-10-11T07:52:41.024Z,12.90
2018-10-11T07:57:44.190Z,13.00
2018-10-11T08:02:47.433Z,13.40
2018-10-11T08:07:50.642Z,13.70
2018-10-11T08:12:53.785Z,14.30
2018-10-11T08:17:57.167Z,14.60
2018-10-11T08:23:00.130Z,15.00
2018-10-11T08:28:03.384Z,15.30
2018-10-11T08:33:07.075Z,15.80
2018-10-11T08:38:10.299Z,16.10
2018-10-11T08:43:13.353Z,16.40
2018-10-11T08:48:19.706Z,16.70
2018-10-11T08:53:22.921Z,17.60
2018-10-11T08:58:26.090Z,18.20
2018-10-11T09:03:29.269Z,18.30
2018-10-11T09:08:32.390Z,18.40
2018-10-11T09:13:35.602Z,18.80
2018-10-11T09:18:38.794Z,18.90
2018-10-11T09:23:41.946Z,18.90
2018-10-11T09:28:46.410Z,19.00
2018-10-11T09:33:49.583Z,19.00
2018-10-11T09:38:53.159Z,19.30
2018-10-11T09:43:57.523Z,19.40
2018-10-11T09:49:11.506Z,19.70
2018-10-11T09:54:14.728Z,19.70
2018-10-11T09:59:17.939Z,19.60
2018-10-11T10:04:21.190Z,19.70
2018-10-11T10:09:24.346Z,19.80
2018-10-11T10:14:27.613Z,20.00
2018-10-11T10:19:31.590Z,19.90
2018-10-11T10:24:34.782Z,20.20
2018-10-11T10:29:38.102Z,20.20
2018-10-11T10:34:41.302Z,20.50
2018-10-11T10:39:44.564Z,20.40
2018-10-11T10:44:47.820Z,20.60
2018-10-11T10:49:51.560Z,20.70
2018-10-11T10:55:02.055Z,20.70
2018-10-11T11:00:10.239Z,20.70
2018-10-11T11:05:13.480Z,20.90
2018-10-11T11:10:25.774Z,20.90
2018-10-11T11:15:29.107Z,21.10
2018-10-11T11:20:32.922Z,21.00
2018-10-11T11:25:38.089Z,21.20
2018-10-11T11:30:41.404Z,21.00
2018-10-11T11:35:44.698Z,21.30
2018-10-11T11:40:49.342Z,21.50
2018-10-11T11:45:52.743Z,21.50
2018-10-11T11:50:55.906Z,21.60
2018-10-11T11:55:59.425Z,21.70
2018-10-11T12:01:02.857Z,21.90
2018-10-11T12:06:07.121Z,21.90
2018-10-11T12:11:17.558Z,21.70
2018-10-11T12:16:20.782Z,21.70
2018-10-11T12:21:24.118Z,22.00
2018-10-11T12:26:27.645Z,22.20
2018-10-11T12:31:30.850Z,22.00
2018-10-11T12:36:36.272Z,21.80
2018-10-11T12:41:39.459Z,21.90
2018-10-11T12:46:43.881Z,22.10
2018-10-11T12:51:47.064Z,22.00
2018-10-11T12:56:50.377Z,22.30
2018-10-11T13:01:53.594Z,22.20
2018-10-11T13:06:56.866Z,22.70
2018-10-11T13:12:02.595Z,22.70
2018-10-11T13:17:08.134Z,22.70
2018-10-11T13:22:12.478Z,22.70
2018-10-11T13:27:15.848Z,22.60
2018-10-11T13:32:20.266Z,22.50
2018-10-11T13:37:23.538Z,22.70
2018-10-11T13:42:26.948Z,22.70
2018-10-11T13:47:36.457Z,22.20
2018-10-11T13:52:35.458Z,22.30
2018-10-11T13:57:47.429Z,22.70
2018-10-11T14:02:50.934Z,22.70
2018-10-11T14:07:54.686Z,22.60
2018-10-11T14:13:02.052Z,22.40
2018-10-11T14:18:09.286Z,22.60
2018-10-11T14:23:08.935Z,22.40
2018-10-11T14:28:14.321Z,22.20
2018-10-11T14:33:17.591Z,22.20
2018-10-11T14:38:24.461Z,22.20
2018-10-11T14:43:27.680Z,22.40
2018-10-11T14:48:30.860Z,22.60
2018-10-11T14:53:34.059Z,22.60
2018-10-11T14:58:37.298Z,22.40
2018-10-11T15:03:40.530Z,22.20
2018-10-11T15:08:44.179Z,21.90
2018-10-11T15:13:49.535Z,21.80
2018-10-11T15:18:53.842Z,21.60
2018-10-11T15:23:58.023Z,21.70
2018-10-11T15:29:02.086Z,21.70
2018-10-11T15:34:08.102Z,21.70
2018-10-11T15:39:15.314Z,21.70
2018-10-11T15:44:19.503Z,21.40
2018-10-11T15:49:26.002Z,21.10
2018-10-11T15:54:29.551Z,20.90
2018-10-11T15:59:32.899Z,20.70
2018-10-11T16:04:46.690Z,20.70
2018-10-11T16:09:50.015Z,20.50
2018-10-11T16:14:54.374Z,20.30
2018-10-11T16:19:57.860Z,20.40
2018-10-11T16:25:05.227Z,20.20
2018-10-11T16:30:11.035Z,20.20
2018-10-11T16:35:15.467Z,20.20
2018-10-11T16:40:25.602Z,20.10
2018-10-11T16:45:29.598Z,20.10
2018-10-11T16:50:33.057Z,20.10
2018-10-11T16:55:36.314Z,20.10
2018-10-11T17:00:39.586Z,19.90
2018-10-11T17:05:42.982Z,19.90
2018-10-11T17:10:46.355Z,19.70
2018-10-11T17:15:53.887Z,19.60
2018-10-11T17:20:57.220Z,19.50
2018-10-11T17:26:04.569Z,19.50
2018-10-11T17:31:08.952Z,19.60
2018-10-11T17:36:12.554Z,19.50
2018-10-11T17:41:16.982Z,19.70
2018-10-11T17:46:20.802Z,19.90
2018-10-11T17:51:24.076Z,20.00
2018-10-11T17:56:27.521Z,20.20
2018-10-11T18:01:33.965Z,20.10
2018-10-11T18:06:37.259Z,20.20
2018-10-11T18:11:41.224Z,20.00
2018-10-11T18:16:44.526Z,20.00
2018-10-11T18:21:47.826Z,20.00
2018-10-11T18:26:51.014Z,19.90
2018-10-11T18:31:54.295Z,19.80
2018-10-11T18:36:57.801Z,19.90
2018-10-11T18:42:00.982Z,20.00
2018-10-11T18:47:04.291Z,20.00
2018-10-11T18:52:07.623Z,19.90
2018-10-11T18:57:10.880Z,19.70
2018-10-11T19:02:14.189Z,19.80
2018-10-11T19:07:18.504Z,19.70
2018-10-11T19:12:21.754Z,19.60
2018-10-11T19:17:29.709Z,19.50
2018-10-11T19:22:36.234Z,19.50
2018-10-11T19:27:40.137Z,19.40
2018-10-11T19:32:44.551Z,19.40
2018-10-11T19:37:52.593Z,19.30
2018-10-11T19:42:58.331Z,19.10
2018-10-11T19:48:02.628Z,19.00
2018-10-11T19:53:05.885Z,19.00
2018-10-11T19:58:10.228Z,18.80
2018-10-11T20:03:13.489Z,18.80
2018-10-11T20:08:28.873Z,18.70
2018-10-11T20:13:32.230Z,18.60
2018-10-11T20:18:55.838Z,18.60
2018-10-11T20:23:59.410Z,18.50
2018-10-11T20:29:14.819Z,18.50
2018-10-11T20:34:18.049Z,18.50
2018-10-11T20:39:22.322Z,18.50
2018-10-11T20:44:26.019Z,18.50
2018-10-11T20:49:30.611Z,18.50
2018-10-11T20:54:34.934Z,18.50
2018-10-11T20:59:39.134Z,18.40
2018-10-11T21:09:57.072Z,18.40
2018-10-11T21:15:00.978Z,18.30
2018-10-11T21:20:11.540Z,18.20
2018-10-11T21:25:15.475Z,18.20
2018-10-11T21:30:20.418Z,18.10
2018-10-11T21:35:31.513Z,18.10
2018-10-11T21:40:35.622Z,18.00
2018-10-11T21:45:43.980Z,18.00
2018-10-11T21:50:49.478Z,18.10
2018-10-11T21:55:53.575Z,18.00
2018-10-11T22:06:26.836Z,18.00
2018-10-11T22:11:30.790Z,18.00
2018-10-11T22:16:39.499Z,18.20
2018-10-11T22:21:42.722Z,18.30
2018-10-11T22:26:45.914Z,18.30
2018-10-11T22:31:50.197Z,18.30
2018-10-11T22:36:53.460Z,18.30
2018-10-11T22:42:05.866Z,18.10
2018-10-11T22:47:09.638Z,18.00
2018-10-11T22:52:13.102Z,18.10
2018-10-11T22:57:18.744Z,18.00
2018-10-11T23:02:22.522Z,18.00
2018-10-11T23:07:27.738Z,18.00
2018-10-11T23:12:30.950Z,17.90
2018-10-11T23:17:34.166Z,17.90
2018-10-11T23:22:38.365Z,17.70
2018-10-11T23:28:17.757Z,17.70
2018-10-11T23:33:21.006Z,17.60
2018-10-11T23:38:39.770Z,17.70
2018-10-11T23:43:52.111Z,17.90
2018-10-11T23:48:55.288Z,17.80
2018-10-11T23:53:58.456Z,17.80
2018-10-11T23:59:01.630Z,17.80
